createdAt,value
2018-02-11T00:01:32.780Z,23.43
2018-02-11T00:03:58.887Z,23.35
2018-02-11T00:06:24.934Z,23.15
2018-02-11T00:08:51.009Z,23.10
2018-02-11T00:11:17.030Z,23.09
2018-02-11T00:13:43.105Z,23.13
2018-02-11T00:16:09.183Z,23.18
2018-02-11T00:18:35.222Z,23.22
2018-02-11T00:21:01.334Z,23.33
2018-02-11T00:23:27.347Z,23.30
2018-02-11T00:25:53.424Z,23.34
2018-02-11T00:28:19.445Z,23.29
2018-02-11T00:30:45.551Z,23.31
2018-02-11T00:33:11.728Z,23.34
2018-02-11T00:35:37.736Z,23.37
2018-02-11T00:38:03.835Z,23.36
2018-02-11T00:40:29.842Z,23.39
2018-02-11T00:42:56.022Z,23.39
2018-02-11T00:45:22.045Z,23.39
2018-02-11T00:47:48.059Z,23.39
2018-02-11T00:50:14.169Z,23.39
2018-02-11T00:52:40.264Z,23.42
2018-02-11T00:55:06.300Z,23.41
2018-02-11T00:57:32.315Z,23.44
2018-02-11T00:59:58.369Z,23.44
2018-02-11T01:02:24.393Z,23.42
2018-02-11T01:04:50.474Z,23.45
2018-02-11T01:07:16.507Z,23.45
2018-02-11T01:09:42.599Z,23.46
2018-02-11T01:12:08.679Z,23.49
2018-02-11T01:14:34.813Z,23.51
2018-02-11T01:17:00.898Z,23.51
2018-02-11T01:19:26.972Z,23.48
2018-02-11T01:21:52.992Z,23.50
2018-02-11T01:24:19.015Z,23.50
2018-02-11T01:26:45.087Z,23.44
2018-02-11T01:29:11.116Z,23.48
2018-02-11T01:31:37.184Z,23.23
2018-02-11T01:34:03.205Z,23.14
2018-02-11T01:36:29.293Z,23.11
2018-02-11T01:38:55.348Z,23.09
2018-02-11T01:41:21.370Z,23.17
2018-02-11T01:43:47.454Z,23.15
2018-02-11T01:46:13.518Z,23.20
2018-02-11T01:48:39.573Z,23.17
2018-02-11T01:51:05.645Z,23.25
2018-02-11T01:53:31.732Z,23.24
2018-02-11T01:55:57.815Z,23.28
2018-02-11T01:58:23.905Z,23.31
2018-02-11T02:00:49.924Z,23.26
2018-02-11T02:03:15.949Z,23.37
2018-02-11T02:05:42.048Z,23.30
2018-02-11T02:08:08.086Z,23.36
2018-02-11T02:10:34.123Z,23.38
2018-02-11T02:13:00.219Z,23.37
2018-02-11T02:15:26.272Z,23.39
2018-02-11T02:17:52.297Z,23.40
2018-02-11T02:20:18.354Z,23.43
2018-02-11T02:22:44.368Z,23.42
2018-02-11T02:25:10.487Z,23.49
2018-02-11T02:27:36.465Z,23.48
2018-02-11T02:30:02.543Z,23.44
2018-02-11T02:32:28.603Z,23.47
2018-02-11T02:34:54.614Z,23.45
2018-02-11T02:37:20.680Z,23.46
2018-02-11T02:39:46.693Z,23.47
2018-02-11T02:42:12.760Z,23.51
2018-02-11T02:44:38.853Z,23.49
2018-02-11T02:47:04.916Z,23.50
2018-02-11T02:49:30.955Z,23.48
2018-02-11T02:51:57.024Z,23.46
2018-02-11T02:54:23.036Z,23.34
2018-02-11T02:56:49.125Z,23.17
2018-02-11T02:59:15.142Z,23.14
2018-02-11T03:01:41.225Z,23.12
2018-02-11T03:04:07.239Z,23.20
2018-02-11T03:06:33.265Z,23.23
2018-02-11T03:08:59.335Z,23.27
2018-02-11T03:11:25.348Z,23.31
2018-02-11T03:13:51.365Z,23.31
2018-02-11T03:16:17.465Z,23.35
2018-02-11T03:18:43.469Z,23.38
2018-02-11T03:21:09.517Z,23.40
2018-02-11T03:23:35.584Z,23.44
2018-02-11T03:26:01.649Z,23.39
2018-02-11T03:28:27.763Z,23.43
2018-02-11T03:30:53.867Z,23.45
2018-02-11T03:33:19.954Z,23.51
2018-02-11T03:35:46.013Z,23.50
2018-02-11T03:38:12.086Z,23.50
2018-02-11T03:40:38.112Z,23.54
2018-02-11T03:43:04.174Z,23.56
2018-02-11T03:45:30.184Z,23.54
2018-02-11T03:47:56.272Z,23.56
2018-02-11T03:50:22.446Z,23.55
2018-02-11T03:52:48.483Z,23.56
2018-02-11T03:55:14.512Z,23.63
2018-02-11T03:57:40.580Z,23.65
2018-02-11T04:00:06.667Z,23.62
2018-02-11T04:02:32.714Z,23.65
2018-02-11T04:04:58.743Z,23.61
2018-02-11T04:07:24.812Z,23.65
2018-02-11T04:09:50.842Z,23.60
2018-02-11T04:12:16.908Z,23.56
2018-02-11T04:14:42.936Z,23.56
2018-02-11T04:17:08.998Z,23.51
2018-02-11T04:19:35.013Z,23.51
2018-02-11T04:22:01.081Z,23.48
2018-02-11T04:24:27.203Z,23.42
2018-02-11T04:26:53.297Z,23.43
2018-02-11T04:29:19.345Z,23.36
2018-02-11T04:31:45.366Z,23.38
2018-02-11T04:34:11.472Z,23.36
2018-02-11T04:36:37.495Z,23.39
2018-02-11T04:39:03.507Z,23.38
2018-02-11T04:41:29.531Z,23.38
2018-02-11T04:43:55.565Z,23.31
2018-02-11T04:46:21.582Z,23.34
2018-02-11T04:48:47.600Z,23.33
2018-02-11T04:51:13.623Z,23.35
2018-02-11T04:53:39.686Z,23.29
2018-02-11T04:56:05.774Z,23.33
2018-02-11T04:58:31.797Z,23.33
2018-02-11T05:00:57.812Z,23.29
2018-02-11T05:03:23.882Z,23.30
2018-02-11T05:05:49.907Z,23.36
2018-02-11T05:08:15.973Z,23.32
2018-02-11T05:10:42.049Z,23.30
2018-02-11T05:13:08.125Z,23.37
2018-02-11T05:15:34.154Z,23.38
2018-02-11T05:18:00.233Z,23.31
2018-02-11T05:20:26.266Z,23.27
2018-02-11T05:22:52.328Z,23.34
2018-02-11T05:25:18.333Z,23.20
2018-02-11T05:27:44.407Z,23.02
2018-02-11T05:30:10.430Z,22.94
2018-02-11T05:32:36.444Z,22.96
2018-02-11T05:35:02.477Z,23.03
2018-02-11T05:37:28.499Z,23.06
2018-02-11T05:39:54.518Z,23.20
2018-02-11T05:42:20.505Z,23.23
2018-02-11T05:44:46.539Z,23.25
2018-02-11T05:49:38.916Z,23.40
2018-02-11T05:52:05.006Z,23.45
2018-02-11T05:54:31.042Z,23.49
2018-02-11T05:56:57.070Z,23.51
2018-02-11T05:59:23.089Z,23.52
2018-02-11T06:01:49.151Z,23.51
2018-02-11T06:04:15.243Z,23.59
2018-02-11T06:06:41.293Z,23.58
2018-02-11T06:09:07.346Z,23.64
2018-02-11T06:11:33.419Z,23.65
2018-02-11T06:13:59.481Z,23.70
2018-02-11T06:16:25.552Z,23.68
2018-02-11T06:18:51.607Z,23.67
2018-02-11T06:21:17.636Z,23.70
2018-02-11T06:23:43.679Z,23.60
2018-02-11T06:26:09.750Z,23.71
2018-02-11T06:28:35.858Z,23.71
2018-02-11T06:31:01.880Z,23.70
2018-02-11T06:33:27.938Z,23.68
2018-02-11T06:35:54.058Z,23.73
2018-02-11T06:38:20.079Z,23.75
2018-02-11T06:40:46.152Z,23.78
2018-02-11T06:43:12.180Z,23.74
2018-02-11T06:45:38.190Z,23.79
2018-02-11T06:48:04.246Z,23.74
2018-02-11T06:50:30.275Z,23.75
2018-02-11T06:52:56.497Z,23.77
2018-02-11T06:55:22.601Z,23.78
2018-02-11T06:57:48.623Z,23.76
2018-02-11T07:00:14.691Z,23.76
2018-02-11T07:02:40.735Z,23.74
2018-02-11T07:05:06.785Z,23.80
2018-02-11T07:07:32.827Z,23.76
2018-02-11T07:09:58.970Z,23.79
2018-02-11T07:12:24.983Z,23.81
2018-02-11T07:14:51.008Z,23.84
2018-02-11T07:17:17.010Z,23.81
2018-02-11T07:19:43.084Z,23.86
2018-02-11T07:22:09.116Z,23.87
2018-02-11T07:24:35.167Z,23.85
2018-02-11T07:27:01.183Z,23.89
2018-02-11T07:29:27.253Z,23.87
2018-02-11T07:31:53.290Z,23.87
2018-02-11T07:34:19.388Z,23.85
2018-02-11T07:36:45.431Z,23.94
2018-02-11T07:39:11.474Z,23.90
2018-02-11T07:41:37.490Z,23.96
2018-02-11T07:44:03.511Z,23.95
2018-02-11T07:46:29.577Z,23.96
2018-02-11T07:48:55.604Z,23.93
2018-02-11T07:51:21.620Z,23.95
2018-02-11T07:53:47.714Z,23.98
2018-02-11T07:56:13.752Z,24.01
2018-02-11T07:58:39.769Z,24.02
2018-02-11T08:01:05.776Z,24.05
2018-02-11T08:03:31.806Z,24.03
2018-02-11T08:05:57.868Z,24.00
2018-02-11T08:08:23.941Z,24.08
2018-02-11T08:10:49.971Z,24.07
2018-02-11T08:13:16.012Z,24.06
2018-02-11T08:15:42.035Z,24.05
2018-02-11T08:18:08.111Z,24.12
2018-02-11T08:20:34.135Z,24.13
2018-02-11T08:23:00.179Z,24.15
2018-02-11T08:25:26.214Z,24.12
2018-02-11T08:27:52.274Z,24.11
2018-02-11T08:30:18.300Z,24.17
2018-02-11T08:32:44.311Z,24.14
2018-02-11T08:35:10.441Z,24.14
2018-02-11T08:37:38.715Z,24.13
2018-02-11T08:40:02.573Z,24.13
2018-02-11T09:29:16.569Z,24.13
2018-02-11T09:31:45.143Z,24.13
2018-02-11T09:34:11.205Z,24.15
2018-02-11T09:36:37.249Z,24.11
2018-02-11T09:39:03.264Z,24.10
2018-02-11T09:41:29.309Z,24.13
2018-02-11T09:43:55.332Z,24.10
2018-02-11T09:46:21.399Z,24.08
2018-02-11T09:48:47.484Z,24.08
2018-02-11T09:51:13.542Z,24.06
2018-02-11T09:53:39.557Z,24.10
2018-02-11T09:56:05.584Z,24.07
2018-02-11T09:58:31.604Z,24.03
2018-02-11T10:00:57.633Z,24.05
2018-02-11T10:03:23.709Z,24.07
2018-02-11T10:05:49.784Z,24.02
2018-02-11T10:08:15.858Z,24.01
2018-02-11T10:10:41.878Z,24.02
2018-02-11T10:13:07.934Z,24.01
2018-02-11T10:15:33.955Z,24.04
2018-02-11T10:17:59.981Z,24.03
2018-02-11T10:20:25.999Z,24.02
2018-02-11T10:22:52.064Z,24.06
2018-02-11T10:25:18.153Z,24.03
2018-02-11T10:27:44.217Z,24.03
2018-02-11T10:30:10.316Z,24.04
2018-02-11T10:32:36.343Z,24.03
2018-02-11T10:35:02.420Z,24.02
2018-02-11T10:37:28.422Z,23.99
2018-02-11T10:39:54.496Z,24.00
2018-02-11T10:42:20.519Z,24.08
2018-02-11T10:44:46.604Z,24.05
2018-02-11T10:47:12.699Z,24.03
2018-02-11T10:49:38.777Z,24.03
2018-02-11T10:52:04.803Z,24.07
2018-02-11T10:54:30.840Z,24.07
2018-02-11T10:56:56.851Z,24.06
2018-02-11T10:59:22.926Z,24.05
2018-02-11T11:01:49.092Z,24.06
2018-02-11T11:04:15.148Z,24.04
2018-02-11T11:06:41.211Z,24.04
2018-02-11T11:09:07.500Z,24.05
2018-02-11T11:11:33.564Z,24.04
2018-02-11T11:13:59.649Z,24.03
2018-02-11T11:16:25.658Z,24.04
2018-02-11T11:18:51.683Z,24.07
2018-02-11T11:21:17.704Z,24.10
2018-02-11T11:23:43.746Z,24.10
2018-02-11T11:26:09.837Z,24.06
2018-02-11T11:28:35.876Z,24.07
2018-02-11T11:31:01.902Z,24.03
2018-02-11T11:33:27.945Z,24.07
2018-02-11T11:35:54.000Z,24.05
2018-02-11T11:38:20.069Z,24.07
2018-02-11T11:40:46.085Z,24.06
2018-02-11T11:43:12.656Z,24.00
2018-02-11T11:45:38.662Z,23.99
2018-02-11T11:48:04.715Z,24.02
2018-02-11T11:50:30.742Z,24.05
2018-02-11T11:52:57.055Z,24.04
2018-02-11T11:55:23.167Z,24.02
2018-02-11T11:57:49.294Z,24.02
2018-02-11T12:00:15.364Z,24.05
2018-02-11T12:02:41.406Z,23.93
2018-02-11T12:05:07.481Z,23.96
2018-02-11T12:07:33.558Z,24.01
2018-02-11T12:09:59.575Z,23.97
2018-02-11T12:12:25.583Z,24.01
2018-02-11T12:14:51.595Z,23.97
2018-02-11T12:17:17.607Z,23.97
2018-02-11T12:19:43.642Z,24.02
2018-02-11T12:22:09.714Z,24.00
2018-02-11T12:24:35.781Z,23.98
2018-02-11T12:27:01.817Z,24.00
2018-02-11T12:29:27.831Z,23.93
2018-02-11T12:31:53.890Z,23.97
2018-02-11T12:34:19.953Z,23.95
2018-02-11T12:36:46.044Z,23.95
2018-02-11T12:39:12.093Z,23.92
2018-02-11T12:41:38.181Z,23.92
2018-02-11T12:44:04.193Z,23.95
2018-02-11T12:46:30.210Z,23.92
2018-02-11T12:48:56.231Z,23.90
2018-02-11T12:51:22.297Z,23.90
2018-02-11T12:53:48.337Z,23.90
2018-02-11T12:56:14.353Z,23.89
2018-02-11T12:58:40.430Z,23.90
2018-02-11T13:01:06.419Z,23.98
2018-02-11T13:03:32.471Z,23.94
2018-02-11T13:05:58.941Z,23.93
2018-02-11T13:08:24.974Z,23.93
2018-02-11T13:10:50.993Z,23.98
2018-02-11T13:13:17.178Z,23.97
2018-02-11T13:15:43.211Z,23.95
2018-02-11T13:18:09.316Z,23.95
2018-02-11T13:20:35.294Z,23.96
2018-02-11T13:23:01.324Z,23.96
2018-02-11T13:25:27.381Z,23.97
2018-02-11T13:27:53.435Z,23.90
2018-02-11T13:30:19.554Z,23.74
2018-02-11T13:32:45.565Z,23.64
2018-02-11T13:35:11.586Z,23.64
2018-02-11T13:37:37.627Z,23.74
2018-02-11T13:40:03.670Z,23.78
2018-02-11T13:42:29.681Z,23.87
2018-02-11T13:44:55.759Z,23.93
2018-02-11T13:47:21.786Z,23.99
2018-02-11T13:49:47.805Z,23.97
2018-02-11T13:52:14.008Z,24.06
2018-02-11T13:54:40.030Z,24.05
2018-02-11T13:57:06.031Z,24.05
2018-02-11T13:59:32.048Z,24.05
2018-02-11T14:01:58.071Z,24.08
2018-02-11T14:04:24.106Z,23.96
2018-02-11T14:06:50.139Z,24.10
2018-02-11T14:09:16.198Z,24.14
2018-02-11T14:11:42.210Z,24.05
2018-02-11T14:14:08.224Z,24.06
2018-02-11T14:16:34.336Z,24.04
2018-02-11T14:19:00.416Z,24.06
2018-02-11T14:21:26.525Z,24.03
2018-02-11T14:23:52.599Z,24.06
2018-02-11T14:26:18.613Z,24.05
2018-02-11T14:28:44.675Z,24.09
2018-02-11T14:31:10.708Z,24.11
2018-02-11T14:33:36.757Z,24.10
2018-02-11T14:36:02.789Z,24.08
2018-02-11T14:38:28.912Z,24.08
2018-02-11T14:40:54.996Z,24.11
2018-02-11T14:43:21.046Z,24.13
2018-02-11T14:45:47.110Z,24.10
2018-02-11T14:48:13.134Z,24.08
2018-02-11T14:50:39.187Z,24.10
2018-02-11T14:53:05.211Z,24.11
2018-02-11T14:55:31.234Z,24.11
2018-02-11T14:57:57.326Z,24.07
2018-02-11T15:00:23.383Z,24.08
2018-02-11T15:02:49.451Z,24.08
2018-02-11T15:05:15.457Z,24.09
2018-02-11T15:07:41.566Z,24.07
2018-02-11T15:10:07.607Z,24.07
2018-02-11T15:12:33.679Z,24.06
2018-02-11T15:14:59.720Z,24.10
2018-02-11T15:17:25.769Z,24.06
2018-02-11T15:19:51.856Z,24.07
2018-02-11T15:22:17.935Z,24.03
2018-02-11T15:24:43.985Z,24.02
2018-02-11T15:27:10.079Z,23.95
2018-02-11T15:29:36.148Z,23.98
2018-02-11T15:32:02.144Z,23.99
2018-02-11T15:34:28.179Z,23.95
2018-02-11T15:36:54.255Z,23.95
2018-02-11T15:39:20.262Z,23.91
2018-02-11T15:41:46.319Z,23.91
2018-02-11T15:44:12.363Z,23.90
2018-02-11T15:46:38.428Z,23.86
2018-02-11T15:49:04.460Z,23.87
2018-02-11T15:51:30.493Z,23.82
2018-02-11T15:53:56.654Z,23.86
2018-02-11T15:56:22.718Z,23.84
2018-02-11T15:58:48.789Z,23.85
2018-02-11T16:01:14.898Z,23.78
2018-02-11T16:03:40.939Z,23.78
2018-02-11T16:06:06.951Z,23.79
2018-02-11T16:08:33.012Z,23.84
2018-02-11T16:10:59.020Z,23.79
2018-02-11T16:13:25.095Z,23.79
2018-02-11T16:15:51.121Z,23.74
2018-02-11T16:18:17.183Z,23.75
2018-02-11T16:20:43.225Z,23.79
2018-02-11T16:23:09.286Z,23.75
2018-02-11T16:25:35.316Z,23.71
2018-02-11T16:28:01.348Z,23.69
2018-02-11T16:30:27.358Z,23.72
2018-02-11T16:32:53.435Z,23.72
2018-02-11T16:35:19.453Z,23.70
2018-02-11T16:37:45.477Z,23.68
2018-02-11T16:40:11.522Z,23.65
2018-02-11T16:42:37.602Z,23.69
2018-02-11T16:45:03.678Z,23.69
2018-02-11T16:47:29.738Z,23.68
2018-02-11T16:49:55.754Z,23.64
2018-02-11T16:52:21.775Z,23.66
2018-02-11T16:54:47.807Z,23.69
2018-02-11T16:57:13.828Z,23.63
2018-02-11T16:59:39.879Z,23.67
2018-02-11T17:02:05.905Z,23.67
2018-02-11T17:04:31.942Z,23.65
2018-02-11T17:06:57.964Z,23.68
2018-02-11T17:09:24.023Z,23.66
2018-02-11T17:11:50.119Z,23.63
2018-02-11T17:14:16.133Z,23.66
2018-02-11T17:16:42.193Z,23.63
2018-02-11T17:19:08.229Z,23.63
2018-02-11T17:21:34.266Z,23.66
2018-02-11T17:24:00.331Z,23.60
2018-02-11T17:26:26.330Z,23.60
2018-02-11T17:28:52.369Z,23.62
2018-02-11T17:31:18.462Z,23.56
2018-02-11T17:33:44.549Z,23.62
2018-02-11T17:36:10.578Z,23.63
2018-02-11T17:38:36.595Z,23.64
2018-02-11T17:41:02.618Z,23.58
2018-02-11T17:43:28.632Z,23.62
2018-02-11T17:45:54.706Z,23.60
2018-02-11T17:48:20.704Z,23.63
2018-02-11T17:50:46.742Z,23.57
2018-02-11T17:53:12.789Z,23.58
2018-02-11T17:55:38.872Z,23.58
2018-02-11T17:58:04.969Z,23.59
2018-02-11T18:00:30.988Z,23.59
2018-02-11T18:02:57.034Z,23.56
2018-02-11T18:05:23.064Z,23.55
2018-02-11T18:07:49.235Z,23.61
2018-02-11T18:10:15.338Z,23.59
2018-02-11T18:12:41.377Z,23.59
2018-02-11T18:15:07.450Z,23.58
2018-02-11T18:17:33.486Z,23.58
2018-02-11T18:19:59.506Z,23.56
2018-02-11T18:22:25.517Z,23.56
2018-02-11T18:24:51.531Z,23.59
2018-02-11T18:27:17.539Z,23.56
2018-02-11T18:29:43.654Z,23.55
2018-02-11T18:32:09.663Z,23.50
2018-02-11T18:34:35.677Z,23.56
2018-02-11T18:37:01.711Z,23.55
2018-02-11T18:39:27.722Z,23.56
2018-02-11T18:41:53.744Z,23.55
2018-02-11T18:44:19.758Z,23.50
2018-02-11T18:46:45.774Z,23.57
2018-02-11T18:49:11.782Z,23.57
2018-02-11T18:51:37.873Z,23.53
2018-02-11T18:54:03.891Z,23.58
2018-02-11T18:56:29.914Z,23.53
2018-02-11T18:58:55.946Z,23.52
2018-02-11T19:01:22.032Z,23.57
2018-02-11T19:03:50.238Z,23.55
2018-02-11T19:06:16.252Z,23.56
2018-02-11T19:08:42.273Z,23.52
2018-02-11T19:11:08.297Z,23.54
2018-02-11T19:13:34.342Z,23.52
2018-02-11T19:16:00.375Z,23.49
2018-02-11T19:18:26.398Z,23.54
2018-02-11T19:20:52.472Z,23.52
2018-02-11T19:23:18.542Z,23.51
2018-02-11T19:25:44.598Z,23.51
2018-02-11T19:28:10.642Z,23.51
2018-02-11T19:30:36.666Z,23.55
2018-02-11T19:33:02.741Z,23.54
2018-02-11T19:35:28.759Z,23.52
2018-02-11T19:37:54.813Z,23.53
2018-02-11T19:40:20.830Z,23.51
2018-02-11T19:42:46.846Z,23.54
2018-02-11T19:45:12.925Z,23.50
2018-02-11T19:47:38.966Z,23.54
2018-02-11T19:50:05.038Z,23.53
2018-02-11T19:52:31.070Z,23.53
2018-02-11T19:54:57.149Z,23.58
2018-02-11T19:57:23.243Z,23.57
2018-02-11T19:59:49.257Z,23.55
2018-02-11T20:02:15.267Z,23.53
2018-02-11T20:04:41.318Z,23.54
2018-02-11T20:07:10.370Z,23.55
2018-02-11T20:09:36.424Z,23.57
2018-02-11T20:12:02.535Z,23.56
2018-02-11T20:14:28.620Z,23.56
2018-02-11T20:16:54.643Z,23.52
2018-02-11T20:19:20.698Z,23.55
2018-02-11T20:21:46.797Z,23.56
2018-02-11T20:24:12.908Z,23.57
2018-02-11T20:26:41.238Z,23.57
2018-02-11T20:29:07.256Z,23.55
2018-02-11T20:31:33.299Z,23.54
2018-02-11T20:33:59.335Z,23.54
2018-02-11T20:36:25.402Z,23.53
2018-02-11T20:38:51.421Z,23.58
2018-02-11T20:41:17.502Z,23.53
2018-02-11T20:43:43.523Z,23.55
2018-02-11T20:46:09.606Z,23.53
2018-02-11T20:48:35.614Z,23.53
2018-02-11T20:51:01.675Z,23.55
2018-02-11T20:53:27.698Z,23.50
2018-02-11T20:55:53.704Z,23.51
2018-02-11T20:58:19.801Z,23.58
2018-02-11T21:00:45.805Z,23.55
2018-02-11T21:03:11.820Z,23.57
2018-02-11T21:05:37.870Z,23.51
2018-02-11T21:08:03.922Z,23.55
2018-02-11T21:10:29.926Z,23.57
2018-02-11T21:12:56.010Z,23.48
2018-02-11T21:15:22.033Z,23.52
2018-02-11T21:17:48.119Z,23.55
2018-02-11T21:20:14.119Z,23.51
2018-02-11T21:22:40.171Z,23.53
2018-02-11T21:25:06.227Z,23.55
2018-02-11T21:27:32.242Z,23.53
2018-02-11T21:29:58.267Z,23.46
2018-02-11T21:32:24.330Z,23.37
2018-02-11T21:34:50.340Z,23.15
2018-02-11T21:37:16.402Z,23.13
2018-02-11T21:39:42.412Z,23.28
2018-02-11T21:42:08.482Z,23.31
2018-02-11T21:44:34.492Z,23.40
2018-02-11T21:47:00.521Z,23.41
2018-02-11T21:49:26.549Z,23.50
2018-02-11T21:51:52.553Z,23.51
2018-02-11T21:54:18.542Z,23.59
2018-02-11T21:56:44.559Z,23.62
2018-02-11T21:59:10.602Z,23.65
2018-02-11T22:01:36.611Z,23.69
2018-02-11T22:04:02.630Z,23.74
2018-02-11T22:06:28.671Z,23.78
2018-02-11T22:08:54.672Z,23.75
2018-02-11T22:11:20.685Z,23.75
2018-02-11T22:13:46.697Z,23.70
2018-02-11T22:16:12.785Z,23.71
2018-02-11T22:18:38.811Z,23.71
2018-02-11T22:21:04.856Z,23.73
2018-02-11T22:23:30.859Z,23.70
2018-02-11T22:25:56.861Z,23.72
2018-02-11T22:28:22.862Z,23.72
2018-02-11T22:30:48.860Z,23.73
2018-02-11T22:33:14.891Z,23.71
2018-02-11T22:35:40.948Z,23.72
2018-02-11T22:38:06.962Z,23.72
2018-02-11T22:40:32.988Z,23.71
2018-02-11T22:42:59.014Z,23.73
2018-02-11T22:45:25.055Z,23.70
2018-02-11T22:47:51.113Z,23.76
2018-02-11T22:50:17.178Z,23.72
2018-02-11T22:52:43.202Z,23.73
2018-02-11T22:55:09.219Z,23.74
2018-02-11T22:57:35.285Z,23.73
2018-02-11T23:00:01.303Z,23.74
2018-02-11T23:02:27.337Z,23.76
2018-02-11T23:04:53.364Z,23.77
2018-02-11T23:07:19.386Z,23.75
2018-02-11T23:09:45.392Z,23.78
2018-02-11T23:12:11.436Z,23.73
2018-02-11T23:14:37.448Z,23.80
2018-02-11T23:17:03.502Z,23.81
2018-02-11T23:19:29.537Z,23.79
2018-02-11T23:21:55.585Z,23.82
2018-02-11T23:24:21.605Z,23.82
2018-02-11T23:26:47.695Z,23.82
2018-02-11T23:29:13.714Z,23.84
2018-02-11T23:31:39.746Z,23.84
2018-02-11T23:34:05.775Z,23.83
2018-02-11T23:36:31.807Z,23.79
2018-02-11T23:38:57.827Z,23.82
2018-02-11T23:41:23.925Z,23.85
2018-02-11T23:43:49.950Z,23.84
2018-02-11T23:46:15.970Z,23.82
2018-02-11T23:48:42.004Z,23.82
2018-02-11T23:51:08.015Z,23.86
2018-02-11T23:53:34.045Z,23.83
2018-02-11T23:56:00.088Z,23.85
2018-02-11T23:58:26.115Z,23.87
